Terminal Aerodrome Forecast
Issued by NWS Sterling, VA

Current Version | Previous Version | Graphics & Text | Print | Product List | Glossary On
Versions: 1 2 3 4 5 6 7 8 9 10 11 12 13 14 15 16 17 18 19 20 21 22 23 24 25 26 27
000
FTUS41 KLWX 180900 AAA
TAFIAD
TAF AMD
KIAD 180903Z 1809/1912 19006KT P6SM SCT090
     FM181000 23009KT P6SM BKN090
     FM181200 27006KT P6SM BKN050
     FM181400 28011G18KT P6SM SCT050
     FM182300 30011KT P6SM SCT040 BKN050
     FM190600 30008KT P6SM BKN035=

USA.gov is the U.S. government's official web portal to all federal, state and local government web resources and services.